Aviation Digital Data Service (ADDS)

Output produced by METARs form (1837 UTC 18 April 2019)
found at http://www.aviationweather.gov/metar/data/
 
Forecast for: VTSM (SAMUI , TH)
Text: TAF VTSM 181700Z 1818/1918 15005KT 9999 FEW020
Forecast period: 1800 UTC 18 April 2019 to 1800 UTC 19 April 2019
Forecast type: FROM: standard forecast or significant change
Winds: from the SSE (150 degrees) at 6 MPH (5 knots; 2.6 m/s)
Visibility: 6 or more miles 10+ km)
Ceiling: at least 12,000 feet AGL
Clouds: few clouds at 2000 feet AGL
Weather: no significant weather forecast for this period